createdAt,value
2022-12-27T06:17:28.686Z,4.16
2022-12-27T06:27:28.526Z,4.24
2022-12-27T06:37:28.535Z,4.11
2022-12-27T06:47:28.534Z,4.15
2022-12-27T06:57:28.569Z,4.14
2022-12-27T07:07:28.584Z,4.11
2022-12-27T07:17:28.570Z,4.17
2022-12-27T07:27:28.647Z,4.25
2022-12-27T07:37:28.664Z,4.30
2022-12-27T07:47:28.759Z,4.32
2022-12-27T07:57:28.674Z,4.13
2022-12-27T08:07:28.587Z,4.02
2022-12-27T08:17:28.733Z,4.00
2022-12-27T08:27:28.568Z,3.99
2022-12-27T08:37:28.692Z,3.99
2022-12-27T08:47:28.868Z,4.01
2022-12-27T08:57:28.988Z,4.10
2022-12-27T09:07:29.033Z,4.18
2022-12-27T09:17:28.966Z,4.33
2022-12-27T09:27:29.059Z,4.46
2022-12-27T09:37:29.145Z,4.41
2022-12-27T09:47:29.020Z,4.52
2022-12-27T09:57:28.974Z,4.60
2022-12-27T10:07:29.016Z,4.45
2022-12-27T10:17:28.978Z,4.27
2022-12-27T10:27:28.984Z,4.33
2022-12-27T10:37:29.041Z,4.52
2022-12-27T10:47:29.001Z,4.57
2022-12-27T10:57:29.036Z,4.66
2022-12-27T11:07:29.000Z,4.72
2022-12-27T11:17:28.931Z,4.71
2022-12-27T11:27:28.935Z,4.92
2022-12-27T11:37:28.948Z,4.79
2022-12-27T11:47:28.930Z,5.18
2022-12-27T11:57:29.941Z,5.34
2022-12-27T12:07:28.976Z,5.13
2022-12-27T12:17:35.596Z,5.06
2022-12-27T12:27:28.971Z,5.08
2022-12-27T12:37:29.067Z,5.10
2022-12-27T12:47:28.999Z,5.42
2022-12-27T12:57:29.006Z,5.53
2022-12-27T13:07:30.331Z,5.34
2022-12-27T13:17:29.037Z,5.27
2022-12-27T13:27:28.988Z,5.18
2022-12-27T13:37:29.078Z,5.28
2022-12-27T13:47:29.055Z,5.27
2022-12-27T13:57:29.224Z,5.23
2022-12-27T14:07:29.037Z,5.16
2022-12-27T14:17:29.193Z,5.20
2022-12-27T14:27:29.230Z,5.18
2022-12-27T14:37:29.073Z,4.98
2022-12-27T14:47:29.173Z,4.68
2022-12-27T14:57:33.448Z,4.46
2022-12-27T15:07:29.049Z,4.21
2022-12-27T15:17:29.128Z,4.06
2022-12-27T15:27:29.053Z,3.88
2022-12-27T15:37:29.122Z,3.67
2022-12-27T15:47:29.102Z,3.64
2022-12-27T15:57:29.174Z,3.49
2022-12-27T16:07:29.197Z,3.44
2022-12-27T16:17:29.217Z,3.36
2022-12-27T16:27:29.129Z,3.42
2022-12-27T16:37:29.152Z,3.50
2022-12-27T16:47:29.168Z,3.49
2022-12-27T16:57:29.082Z,3.64
2022-12-27T17:07:29.100Z,3.63
2022-12-27T17:17:29.314Z,3.42
2022-12-27T17:27:29.103Z,3.48
2022-12-27T17:37:29.329Z,3.69
2022-12-27T17:47:29.125Z,3.77
2022-12-27T17:57:29.139Z,3.91
2022-12-27T18:07:29.184Z,4.04
2022-12-27T18:17:29.532Z,4.11
2022-12-27T18:27:29.359Z,4.11
2022-12-27T18:37:29.472Z,4.10
2022-12-27T18:47:29.456Z,4.25
2022-12-27T18:57:29.803Z,4.40
2022-12-27T19:07:29.768Z,4.74
2022-12-27T19:17:29.758Z,4.73
